createdAt,value
2022-12-15T00:02:19.920Z,100300.75
2022-12-15T00:05:06.611Z,100303.00
2022-12-15T00:07:52.782Z,100313.03
2022-12-15T00:10:38.993Z,100305.88
2022-12-15T00:13:30.208Z,100307.31
2022-12-15T00:16:17.726Z,100309.31
2022-12-15T00:19:04.090Z,100311.44
2022-12-15T00:21:50.004Z,100311.22
2022-12-15T00:24:36.020Z,100310.75
2022-12-15T00:27:21.591Z,100318.06
2022-12-15T00:30:07.064Z,100323.38
2022-12-15T00:32:54.054Z,100329.56
2022-12-15T00:35:39.860Z,100333.56
2022-12-15T00:38:27.390Z,100340.63
2022-12-15T00:40:58.939Z,100332.13
2022-12-15T00:43:26.455Z,100340.69
2022-12-15T00:46:12.356Z,100329.03
2022-12-15T00:48:41.455Z,100324.94
2022-12-15T00:51:09.153Z,100327.41
2022-12-15T00:53:54.899Z,100319.38
2022-12-15T00:56:40.558Z,100330.09
2022-12-15T00:59:26.463Z,100324.41
2022-12-15T01:02:12.141Z,100317.66
2022-12-15T01:04:59.101Z,100312.84
2022-12-15T01:07:45.166Z,100324.53
2022-12-15T01:10:36.525Z,100332.50
2022-12-15T01:13:23.625Z,100337.66
2022-12-15T01:16:09.211Z,100342.66
2022-12-15T01:18:54.895Z,100355.84
2022-12-15T01:21:25.423Z,100353.56
2022-12-15T01:23:53.370Z,100352.09
2022-12-15T01:26:20.428Z,100357.75
2022-12-15T01:28:47.473Z,100353.69
2022-12-15T01:31:14.847Z,100358.41
2022-12-15T01:33:45.103Z,100359.53
2022-12-15T01:36:12.347Z,100359.25
2022-12-15T01:38:42.646Z,100364.97
2022-12-15T01:41:12.290Z,100359.53
2022-12-15T01:43:40.992Z,100378.69
2022-12-15T01:46:10.837Z,100381.13
2022-12-15T01:48:46.148Z,100378.69
2022-12-15T01:51:19.683Z,100371.97
2022-12-15T01:53:59.736Z,100374.81
2022-12-15T01:56:37.083Z,100384.25
2022-12-15T01:59:08.980Z,100385.19
2022-12-15T02:01:36.396Z,100389.56
2022-12-15T02:04:04.059Z,100385.19
2022-12-15T02:06:31.084Z,100382.50
2022-12-15T02:09:01.828Z,100381.66
2022-12-15T02:11:59.417Z,100387.09
2022-12-15T02:14:54.142Z,100392.41
2022-12-15T02:17:36.363Z,100384.03
2022-12-15T02:20:45.853Z,100390.59
2022-12-15T02:24:04.416Z,100388.97
2022-12-15T02:27:15.685Z,100388.41
2022-12-15T02:30:22.846Z,100384.88
2022-12-15T02:33:06.732Z,100390.53
2022-12-15T02:35:47.626Z,100389.34
2022-12-15T02:38:14.744Z,100398.06
2022-12-15T02:40:42.863Z,100387.19
2022-12-15T02:43:11.016Z,100380.13
2022-12-15T02:45:56.014Z,100386.00
2022-12-15T02:48:36.106Z,100381.00
2022-12-15T02:51:22.037Z,100379.56
2022-12-15T02:54:14.379Z,100381.91
2022-12-15T02:56:54.660Z,100389.06
2022-12-15T02:59:34.236Z,100400.81
2022-12-15T03:02:06.496Z,100397.16
2022-12-15T03:04:34.029Z,100396.47
2022-12-15T03:07:04.802Z,100402.59
2022-12-15T03:09:33.191Z,100398.22
2022-12-15T03:12:00.759Z,100396.22
2022-12-15T03:14:28.395Z,100398.56
2022-12-15T03:16:56.004Z,100386.97
2022-12-15T03:19:25.761Z,100386.97
2022-12-15T03:21:53.029Z,100392.16
2022-12-15T03:24:20.038Z,100395.69
2022-12-15T03:26:49.893Z,100403.75
2022-12-15T03:29:17.275Z,100407.28
2022-12-15T03:31:44.789Z,100403.84
2022-12-15T03:34:12.123Z,100405.75
2022-12-15T03:36:40.496Z,100414.22
2022-12-15T03:39:07.604Z,100408.78
2022-12-15T03:41:34.735Z,100425.75
2022-12-15T03:44:02.183Z,100416.19
2022-12-15T03:46:29.225Z,100410.50
2022-12-15T03:48:56.401Z,100417.09
2022-12-15T03:51:23.530Z,100415.72
2022-12-15T03:53:52.075Z,100418.91
2022-12-15T03:56:19.360Z,100419.59
2022-12-15T03:58:46.889Z,100423.16
2022-12-15T04:01:27.103Z,100417.69
2022-12-15T04:04:00.191Z,100426.75
2022-12-15T04:06:28.866Z,100415.28
2022-12-15T04:08:57.268Z,100421.25
2022-12-15T04:11:24.250Z,100417.63
2022-12-15T04:13:51.392Z,100419.78
2022-12-15T04:16:20.313Z,100422.59
2022-12-15T04:19:07.583Z,100420.03
2022-12-15T04:21:34.556Z,100419.88
2022-12-15T04:24:21.703Z,100438.72
2022-12-15T04:27:07.625Z,100436.25
2022-12-15T04:29:53.047Z,100441.78
2022-12-15T04:32:38.655Z,100446.34
2022-12-15T04:35:25.223Z,100439.84
2022-12-15T04:38:11.723Z,100443.34
2022-12-15T04:40:59.055Z,100441.06
2022-12-15T04:43:44.639Z,100440.75
2022-12-15T04:46:30.342Z,100446.56
2022-12-15T04:49:16.071Z,100448.09
2022-12-15T04:52:01.595Z,100443.28
2022-12-15T04:54:47.459Z,100447.19
2022-12-15T04:57:34.257Z,100458.06
2022-12-15T05:00:19.732Z,100456.16
2022-12-15T05:03:05.491Z,100458.25
2022-12-15T05:05:51.215Z,100463.06
2022-12-15T05:08:36.823Z,100451.22
2022-12-15T05:11:22.612Z,100453.19
2022-12-15T05:14:09.408Z,100457.91
2022-12-15T05:16:55.015Z,100455.03
2022-12-15T05:19:40.718Z,100461.63
2022-12-15T05:22:26.338Z,100469.16
2022-12-15T05:25:11.984Z,100466.31
2022-12-15T05:27:57.315Z,100473.59
2022-12-15T05:30:44.081Z,100476.19
2022-12-15T05:33:11.086Z,100469.34
2022-12-15T05:35:37.995Z,100471.00
2022-12-15T05:38:05.874Z,100469.22
2022-12-15T05:40:32.987Z,100471.50
2022-12-15T05:43:00.824Z,100477.06
2022-12-15T05:45:29.157Z,100471.75
2022-12-15T05:47:56.468Z,100478.34
2022-12-15T05:50:23.637Z,100473.47
2022-12-15T05:52:50.755Z,100474.00
2022-12-15T05:55:18.835Z,100477.59
2022-12-15T05:57:51.850Z,100481.38
2022-12-15T06:00:19.544Z,100471.25
2022-12-15T06:02:48.032Z,100469.81
2022-12-15T06:05:17.293Z,100471.13
2022-12-15T06:07:44.362Z,100470.22
2022-12-15T06:10:11.734Z,100473.09
2022-12-15T06:12:38.761Z,100485.38
2022-12-15T06:15:07.065Z,100476.63
2022-12-15T06:17:34.128Z,100479.13
2022-12-15T06:20:02.884Z,100482.78
2022-12-15T06:22:30.000Z,100483.91
2022-12-15T06:24:57.025Z,100491.78
2022-12-15T06:27:24.072Z,100497.94
2022-12-15T06:29:51.146Z,100496.31
2022-12-15T06:32:18.129Z,100509.84
2022-12-15T06:34:45.154Z,100510.63
2022-12-15T06:37:13.435Z,100505.22
2022-12-15T06:39:40.625Z,100513.22
2022-12-15T06:42:07.641Z,100522.25
2022-12-15T06:44:34.747Z,100529.91
2022-12-15T06:47:01.777Z,100534.75
2022-12-15T06:49:28.762Z,100534.50
2022-12-15T06:51:55.992Z,100529.88
2022-12-15T06:54:24.779Z,100533.44
2022-12-15T06:56:52.055Z,100533.06
2022-12-15T06:59:19.033Z,100534.31
2022-12-15T07:01:46.306Z,100529.13
2022-12-15T07:04:13.541Z,100534.31
2022-12-15T07:06:41.088Z,100539.41
2022-12-15T07:09:16.009Z,100542.84
2022-12-15T07:11:45.126Z,100540.53
2022-12-15T07:14:12.394Z,100546.13
2022-12-15T07:16:39.482Z,100551.44
2022-12-15T07:19:06.522Z,100554.41
2022-12-15T07:21:33.678Z,100559.59
2022-12-15T07:24:01.716Z,100563.72
2022-12-15T07:26:29.324Z,100558.53
2022-12-15T07:28:57.652Z,100564.88
2022-12-15T07:31:24.857Z,100567.00
2022-12-15T07:33:52.426Z,100571.72
2022-12-15T07:36:20.027Z,100572.41
2022-12-15T07:38:50.719Z,100577.81
2022-12-15T07:41:19.772Z,100574.63
2022-12-15T07:43:47.569Z,100571.09
2022-12-15T07:46:17.398Z,100582.25
2022-12-15T07:48:50.200Z,100586.38
2022-12-15T07:51:20.297Z,100580.13
2022-12-15T07:53:49.661Z,100580.13
2022-12-15T07:56:18.233Z,100576.38
2022-12-15T07:58:45.247Z,100585.91
2022-12-15T08:01:15.647Z,100582.63
2022-12-15T08:03:42.812Z,100584.97
2022-12-15T08:06:12.324Z,100586.28
2022-12-15T08:08:40.344Z,100600.44
2022-12-15T08:11:09.956Z,100606.69
2022-12-15T08:16:29.064Z,100618.81
2022-12-15T08:18:57.494Z,100616.94
2022-12-15T08:21:24.790Z,100622.31
2022-12-15T08:23:52.025Z,100626.53
2022-12-15T08:26:22.648Z,100618.16
2022-12-15T08:28:54.181Z,100614.16
2022-12-15T08:31:23.770Z,100618.84
2022-12-15T08:33:52.356Z,100619.22
2022-12-15T08:36:20.345Z,100616.63
2022-12-15T08:38:47.728Z,100617.09
2022-12-15T08:41:17.749Z,100622.03
2022-12-15T08:43:48.955Z,100629.41
2022-12-15T08:46:22.515Z,100631.63
2022-12-15T08:48:53.447Z,100635.38
2022-12-15T08:51:23.035Z,100636.97
2022-12-15T08:53:50.401Z,100635.50
2022-12-15T08:56:22.149Z,100637.22
2022-12-15T08:58:55.040Z,100639.31
2022-12-15T09:01:24.474Z,100651.66
2022-12-15T09:03:55.346Z,100653.00
2022-12-15T09:06:25.970Z,100639.91
2022-12-15T09:08:56.459Z,100638.28
2022-12-15T09:11:23.906Z,100647.59
2022-12-15T09:13:59.101Z,100641.56
2022-12-15T09:16:28.247Z,100645.44
2022-12-15T09:19:29.214Z,100642.81
2022-12-15T09:21:56.396Z,100638.38
2022-12-15T09:24:32.482Z,100639.50
2022-12-15T09:27:10.006Z,100638.72
2022-12-15T09:29:37.014Z,100645.22
2022-12-15T09:32:10.529Z,100641.03
2022-12-15T09:34:42.189Z,100649.06
2022-12-15T09:37:09.214Z,100645.38
2022-12-15T09:42:32.658Z,100640.78
2022-12-15T09:45:07.533Z,100639.34
2022-12-15T09:47:45.196Z,100642.72
2022-12-15T09:50:19.276Z,100645.47
2022-12-15T09:52:51.679Z,100657.69
2022-12-15T09:55:22.957Z,100656.19
2022-12-15T09:57:56.461Z,100656.09
2022-12-15T10:00:30.881Z,100653.47
2022-12-15T10:03:34.714Z,100654.84
2022-12-15T10:06:21.581Z,100665.00
2022-12-15T10:08:55.875Z,100654.28
2022-12-15T10:11:50.340Z,100660.56
2022-12-15T10:14:30.420Z,100662.72
2022-12-15T10:17:14.196Z,100674.25
2022-12-15T10:19:52.272Z,100672.03
2022-12-15T10:22:27.029Z,100670.69
2022-12-15T10:25:09.868Z,100669.59
2022-12-15T10:28:08.386Z,100671.56
2022-12-15T10:30:43.755Z,100665.50
2022-12-15T10:33:19.933Z,100663.16
2022-12-15T10:35:48.666Z,100653.13
2022-12-15T10:38:34.542Z,100654.91
2022-12-15T10:41:07.619Z,100656.56
2022-12-15T10:43:38.183Z,100654.50
2022-12-15T10:46:14.149Z,100654.19
2022-12-15T10:48:42.719Z,100661.88
2022-12-15T10:51:30.812Z,100658.25
2022-12-15T10:54:15.557Z,100658.16
2022-12-15T10:56:50.345Z,100659.06
2022-12-15T10:59:28.808Z,100658.25
2022-12-15T11:02:23.106Z,100656.94
2022-12-15T11:04:56.470Z,100671.84
2022-12-15T11:07:27.701Z,100677.88
2022-12-15T11:10:01.242Z,100664.59
2022-12-15T11:12:50.718Z,100666.81
2022-12-15T11:15:46.045Z,100667.94
2022-12-15T11:18:38.071Z,100666.81
2022-12-15T11:21:12.165Z,100663.25
2022-12-15T11:24:02.065Z,100669.56
2022-12-15T11:26:46.797Z,100677.34
2022-12-15T11:29:30.857Z,100670.56
2022-12-15T11:34:47.590Z,100675.91
2022-12-15T11:37:37.375Z,100681.09
2022-12-15T11:40:39.571Z,100684.91
2022-12-15T11:43:44.709Z,100681.09
2022-12-15T11:46:22.662Z,100680.13
2022-12-15T11:49:16.061Z,100683.53
2022-12-15T11:51:51.899Z,100680.75
2022-12-15T11:54:28.692Z,100680.72
2022-12-15T11:57:09.302Z,100683.38
2022-12-15T12:00:02.412Z,100677.81
2022-12-15T12:02:52.205Z,100670.59
2022-12-15T12:05:43.961Z,100675.81
2022-12-15T12:08:29.804Z,100677.97
2022-12-15T12:11:10.429Z,100672.38
2022-12-15T12:13:50.296Z,100676.63
2022-12-15T12:16:35.822Z,100678.44
2022-12-15T12:19:09.931Z,100688.28
2022-12-15T12:21:42.884Z,100683.63
2022-12-15T12:24:19.725Z,100687.53
2022-12-15T12:26:54.741Z,100680.28
2022-12-15T12:29:31.142Z,100687.41
2022-12-15T12:32:10.444Z,100687.63
2022-12-15T12:35:32.012Z,100689.81
2022-12-15T12:38:02.880Z,100684.88
2022-12-15T12:40:48.550Z,100685.59
2022-12-15T12:43:33.119Z,100683.00
2022-12-15T12:46:10.336Z,100682.78
2022-12-15T12:48:48.568Z,100688.56
2022-12-15T12:51:29.842Z,100688.13
2022-12-15T12:53:58.260Z,100689.59
2022-12-15T12:56:34.889Z,100687.38
2022-12-15T12:59:08.596Z,100693.22
2022-12-15T13:01:38.324Z,100691.28
2022-12-15T13:04:11.659Z,100692.03
2022-12-15T13:07:06.836Z,100684.84
2022-12-15T13:09:41.255Z,100683.72
2022-12-15T13:12:53.235Z,100676.91
2022-12-15T13:15:42.821Z,100676.28
2022-12-15T13:18:18.989Z,100676.09
2022-12-15T13:20:50.779Z,100676.75
2022-12-15T13:23:43.945Z,100678.72
2022-12-15T13:26:18.839Z,100664.00
2022-12-15T13:28:51.687Z,100667.13
2022-12-15T13:31:30.269Z,100663.94
2022-12-15T13:34:17.996Z,100657.28
2022-12-15T13:37:01.073Z,100655.03
2022-12-15T13:40:07.060Z,100658.44
2022-12-15T13:42:53.126Z,100658.22
2022-12-15T13:45:56.384Z,100664.78
2022-12-15T13:51:43.781Z,100669.38
2022-12-15T13:54:22.589Z,100668.41
2022-12-15T13:57:03.418Z,100674.31
2022-12-15T13:59:41.800Z,100673.06
2022-12-15T14:02:27.615Z,100682.81
2022-12-15T14:05:17.539Z,100680.38
2022-12-15T14:07:54.403Z,100674.94
2022-12-15T14:10:29.878Z,100671.00
2022-12-15T14:13:01.031Z,100664.25
2022-12-15T14:15:32.485Z,100666.84
2022-12-15T14:18:02.268Z,100668.88
2022-12-15T14:20:41.054Z,100665.19
2022-12-15T14:23:18.965Z,100671.34
2022-12-15T14:25:56.466Z,100674.22
2022-12-15T14:28:27.479Z,100679.75
2022-12-15T14:31:00.253Z,100676.41
2022-12-15T14:36:19.723Z,100690.69
2022-12-15T14:38:53.798Z,100680.25
2022-12-15T14:41:27.543Z,100676.78
2022-12-15T14:44:32.080Z,100678.38
2022-12-15T14:46:49.665Z,100677.47
2022-12-15T14:49:25.812Z,100677.84
2022-12-15T14:52:01.923Z,100672.19
2022-12-15T14:54:36.951Z,100671.88
2022-12-15T14:57:15.863Z,100674.69
2022-12-15T14:59:45.790Z,100679.94
2022-12-15T15:02:19.820Z,100690.16
2022-12-15T15:03:06.891Z,100679.03
2022-12-15T15:03:07.606Z,100663.94
2022-12-15T15:04:59.574Z,100684.72
2022-12-15T15:07:31.538Z,100689.19
2022-12-15T15:10:00.185Z,100684.22
2022-12-15T15:12:44.632Z,100682.16
2022-12-15T15:15:17.511Z,100684.84
2022-12-15T15:17:52.221Z,100690.81
2022-12-15T15:20:22.891Z,100693.19
2022-12-15T15:23:18.851Z,100695.19
2022-12-15T15:25:54.548Z,100691.53
2022-12-15T15:29:18.376Z,100692.25
2022-12-15T15:32:14.433Z,100689.25
2022-12-15T15:34:41.859Z,100693.56
2022-12-15T15:37:24.061Z,100698.63
2022-12-15T15:39:55.917Z,100699.63
2022-12-15T15:42:26.660Z,100701.56
2022-12-15T15:45:02.106Z,100696.63
2022-12-15T15:47:32.387Z,100692.06
2022-12-15T15:50:00.309Z,100693.41
2022-12-15T15:52:31.852Z,100686.69
2022-12-15T15:54:59.706Z,100692.75
2022-12-15T15:57:26.960Z,100686.16
2022-12-15T15:59:54.841Z,100676.28
2022-12-15T16:02:23.511Z,100685.09
2022-12-15T16:04:50.778Z,100690.31
2022-12-15T16:07:24.255Z,100688.66
2022-12-15T16:09:52.866Z,100681.81
2022-12-15T16:12:27.823Z,100685.38
2022-12-15T16:14:55.684Z,100683.88
2022-12-15T16:17:25.232Z,100687.59
2022-12-15T16:19:54.443Z,100685.97
2022-12-15T16:22:22.479Z,100685.41
2022-12-15T16:24:56.895Z,100681.31
2022-12-15T16:27:24.354Z,100687.63
2022-12-15T16:29:51.616Z,100688.44
2022-12-15T16:32:18.796Z,100685.56
2022-12-15T16:34:49.577Z,100686.53
2022-12-15T16:37:27.202Z,100690.91
2022-12-15T16:39:54.390Z,100690.09
2022-12-15T16:42:21.510Z,100693.66
2022-12-15T16:44:48.643Z,100700.81
2022-12-15T16:47:16.040Z,100704.69
2022-12-15T16:49:43.067Z,100711.97
2022-12-15T16:52:20.240Z,100713.91
2022-12-15T16:54:50.045Z,100708.28
2022-12-15T16:57:18.371Z,100705.16
2022-12-15T16:59:45.379Z,100707.34
2022-12-15T17:02:28.332Z,100702.81
2022-12-15T17:04:55.814Z,100713.53
2022-12-15T17:07:26.905Z,100715.03
2022-12-15T17:10:00.166Z,100711.06
2022-12-15T17:12:27.215Z,100715.72
2022-12-15T17:14:54.199Z,100716.03
2022-12-15T17:17:21.431Z,100713.69
2022-12-15T17:20:27.311Z,100717.13
2022-12-15T17:22:38.689Z,100721.50
2022-12-15T17:25:06.424Z,100714.94
2022-12-15T17:27:36.939Z,100720.53
2022-12-15T17:30:05.260Z,100715.72
2022-12-15T17:32:32.368Z,100720.41
2022-12-15T17:34:59.286Z,100721.91
2022-12-15T17:37:30.568Z,100725.72
2022-12-15T17:40:13.563Z,100723.09
2022-12-15T17:42:40.583Z,100726.69
2022-12-15T17:45:20.419Z,100728.63
2022-12-15T17:47:49.048Z,100720.13
2022-12-15T17:50:17.151Z,100732.56
2022-12-15T17:52:47.745Z,100734.34
2022-12-15T17:55:24.251Z,100724.47
2022-12-15T17:57:55.356Z,100730.50
2022-12-15T18:00:26.269Z,100731.59
2022-12-15T18:02:54.621Z,100731.59
2022-12-15T18:05:26.026Z,100734.91
2022-12-15T18:07:56.712Z,100736.81
2022-12-15T18:10:31.267Z,100740.34
2022-12-15T18:12:59.710Z,100731.59
2022-12-15T18:15:29.666Z,100733.53
2022-12-15T18:17:58.579Z,100734.31
2022-12-15T18:20:26.132Z,100739.69
2022-12-15T18:22:53.846Z,100751.03
2022-12-15T18:25:28.484Z,100752.84
2022-12-15T18:27:58.361Z,100752.94
2022-12-15T18:30:27.101Z,100754.88
2022-12-15T18:32:58.611Z,100757.47
2022-12-15T18:35:34.285Z,100760.34
2022-12-15T18:38:01.258Z,100761.56
2022-12-15T18:40:30.359Z,100758.28
2022-12-15T18:42:57.425Z,100762.81
2022-12-15T18:45:28.248Z,100760.88
2022-12-15T18:47:55.523Z,100762.66
2022-12-15T18:50:26.331Z,100767.88
2022-12-15T18:52:58.912Z,100781.97
2022-12-15T18:55:31.088Z,100785.78
2022-12-15T18:58:01.780Z,100785.38
2022-12-15T19:00:30.325Z,100790.38
2022-12-15T19:03:00.064Z,100792.28
2022-12-15T19:05:29.170Z,100789.00
2022-12-15T19:08:01.613Z,100790.91
2022-12-15T19:10:33.723Z,100799.94
2022-12-15T19:13:01.069Z,100810.59
2022-12-15T19:15:28.491Z,100807.31
2022-12-15T19:18:14.130Z,100813.00
2022-12-15T19:21:00.026Z,100812.72
2022-12-15T19:23:26.997Z,100816.25
2022-12-15T19:25:55.363Z,100824.34
2022-12-15T19:28:24.051Z,100818.28
2022-12-15T19:30:52.101Z,100826.94
2022-12-15T19:33:20.246Z,100831.31
2022-12-15T19:35:51.334Z,100834.84
2022-12-15T19:38:25.532Z,100842.94
2022-12-15T19:40:55.297Z,100843.72
2022-12-15T19:43:24.371Z,100841.03
2022-12-15T19:45:52.266Z,100848.00
2022-12-15T19:48:23.334Z,100838.53
2022-12-15T19:50:52.307Z,100842.19
2022-12-15T19:53:25.998Z,100844.94
2022-12-15T19:55:57.989Z,100842.16
2022-12-15T19:58:29.436Z,100837.75
2022-12-15T20:01:00.183Z,100844.09
2022-12-15T20:03:29.121Z,100845.25
2022-12-15T20:05:58.872Z,100846.91
2022-12-15T20:08:29.327Z,100853.19
2022-12-15T20:10:57.849Z,100856.72
2022-12-15T20:13:26.410Z,100868.28
2022-12-15T20:15:54.471Z,100864.50
2022-12-15T20:18:21.543Z,100866.72
2022-12-15T20:20:49.906Z,100873.13
2022-12-15T20:23:20.672Z,100873.56
2022-12-15T20:25:47.896Z,100866.19
2022-12-15T20:28:22.475Z,100862.13
2022-12-15T20:30:51.077Z,100871.06
2022-12-15T20:33:19.906Z,100862.78
2022-12-15T20:35:49.853Z,100852.91
2022-12-15T20:38:28.576Z,100858.00
2022-12-15T20:40:56.994Z,100852.41
2022-12-15T20:43:27.883Z,100857.38
2022-12-15T20:46:05.605Z,100853.78
2022-12-15T20:48:36.426Z,100850.34
2022-12-15T20:51:09.241Z,100849.66
2022-12-15T20:53:37.843Z,100854.88
2022-12-15T20:56:06.114Z,100851.03
2022-12-15T20:58:40.201Z,100847.50
2022-12-15T21:01:18.453Z,100843.94
2022-12-15T21:03:46.601Z,100844.63
2022-12-15T21:06:13.871Z,100848.88
2022-12-15T21:08:41.428Z,100847.94
2022-12-15T21:11:16.045Z,100846.56
2022-12-15T21:13:46.933Z,100843.13
2022-12-15T21:16:16.654Z,100839.69
2022-12-15T21:21:34.359Z,100845.16
2022-12-15T21:24:08.198Z,100852.94
2022-12-15T21:26:35.245Z,100851.03
2022-12-15T21:29:12.878Z,100847.25
2022-12-15T21:31:39.868Z,100849.69
2022-12-15T21:34:07.053Z,100849.97
2022-12-15T21:36:34.078Z,100845.56
2022-12-15T21:39:01.305Z,100841.78
2022-12-15T21:41:28.289Z,100849.84
2022-12-15T21:43:55.230Z,100847.25
2022-12-15T21:46:28.908Z,100856.00
2022-12-15T21:49:15.276Z,100857.06
2022-12-15T21:51:46.872Z,100854.03
2022-12-15T21:54:20.345Z,100855.41
2022-12-15T21:56:48.601Z,100852.09
2022-12-15T21:59:20.656Z,100857.31
2022-12-15T22:01:50.551Z,100854.13
2022-12-15T22:04:29.801Z,100859.47
2022-12-15T22:06:56.820Z,100854.50
2022-12-15T22:09:23.958Z,100854.75
2022-12-15T22:11:55.949Z,100857.66
2022-12-15T22:14:27.110Z,100866.63
2022-12-15T22:16:55.896Z,100880.47
2022-12-15T22:19:23.774Z,100882.94
2022-12-15T22:21:51.073Z,100890.91
2022-12-15T22:24:20.007Z,100886.06
2022-12-15T22:26:47.539Z,100886.56
2022-12-15T22:29:18.183Z,100893.22
2022-12-15T22:31:45.132Z,100900.78
2022-12-15T22:34:16.898Z,100896.72
2022-12-15T22:36:44.171Z,100907.44
2022-12-15T22:39:11.421Z,100902.31
2022-12-15T22:41:41.365Z,100896.34
2022-12-15T22:44:18.103Z,100906.09
2022-12-15T22:46:45.553Z,100920.66
2022-12-15T22:49:18.017Z,100917.59
2022-12-15T22:51:45.278Z,100916.75
2022-12-15T22:54:19.375Z,100906.56
2022-12-15T22:56:50.570Z,100914.19
2022-12-15T22:59:25.997Z,100906.19
2022-12-15T23:01:53.315Z,100915.47
2022-12-15T23:04:24.189Z,100914.19
2022-12-15T23:06:51.687Z,100916.22
2022-12-15T23:09:19.007Z,100916.47
2022-12-15T23:11:46.011Z,100922.59
2022-12-15T23:14:17.042Z,100925.19
2022-12-15T23:16:46.219Z,100935.84
2022-12-15T23:19:25.422Z,100936.34
2022-12-15T23:21:53.690Z,100927.19
2022-12-15T23:24:20.699Z,100939.28
2022-12-15T23:26:47.671Z,100936.69
2022-12-15T23:29:14.632Z,100944.38
2022-12-15T23:31:41.731Z,100949.47
2022-12-15T23:34:08.787Z,100945.34
2022-12-15T23:36:35.779Z,100942.50
2022-12-15T23:39:04.157Z,100933.19
2022-12-15T23:41:31.130Z,100937.66
2022-12-15T23:43:58.108Z,100944.03
2022-12-15T23:46:25.105Z,100940.22
2022-12-15T23:48:52.184Z,100934.78
2022-12-15T23:51:20.617Z,100946.81
2022-12-15T23:53:48.730Z,100947.53
2022-12-15T23:56:20.334Z,100953.44
2022-12-15T23:58:53.962Z,100949.66
